createdAt,value
2019-01-22T00:00:42.146Z,32.03
2019-01-22T00:03:11.225Z,33.75
2019-01-22T00:05:40.355Z,34.80
2019-01-22T00:08:09.477Z,31.80
2019-01-22T00:10:38.539Z,34.38
2019-01-22T00:13:07.855Z,32.75
2019-01-22T00:15:36.883Z,37.70
2019-01-22T00:18:05.973Z,34.05
2019-01-22T00:20:34.959Z,35.28
2019-01-22T00:23:04.020Z,34.83
2019-01-22T00:25:33.113Z,31.70
2019-01-22T00:28:01.964Z,33.98
2019-01-22T00:30:30.999Z,31.70
2019-01-22T00:32:59.993Z,31.33
2019-01-22T00:35:28.895Z,33.25
2019-01-22T00:37:57.912Z,29.87
2019-01-22T00:40:27.153Z,32.05
2019-01-22T00:42:56.169Z,28.25
2019-01-22T00:45:25.250Z,32.17
2019-01-22T00:47:54.182Z,28.92
2019-01-22T00:50:23.199Z,28.25
2019-01-22T00:52:52.032Z,27.75
2019-01-22T00:55:21.020Z,26.60
2019-01-22T00:57:50.063Z,28.75
2019-01-22T01:00:25.213Z,27.17
2019-01-22T01:02:54.219Z,27.60
2019-01-22T01:05:23.255Z,26.93
2019-01-22T01:07:52.321Z,26.35
2019-01-22T01:10:21.483Z,27.87
2019-01-22T01:12:50.655Z,26.80
2019-01-22T01:15:19.949Z,25.48
2019-01-22T01:17:48.880Z,25.20
2019-01-22T01:20:19.074Z,24.50
2019-01-22T01:22:48.089Z,27.82
2019-01-22T01:25:18.706Z,28.20
2019-01-22T01:27:47.709Z,29.37
2019-01-22T01:30:18.939Z,30.17
2019-01-22T01:32:47.950Z,31.48
2019-01-22T01:35:16.955Z,29.90
2019-01-22T01:37:45.887Z,29.92
2019-01-22T01:40:16.523Z,30.35
2019-01-22T01:42:45.562Z,35.03
2019-01-22T01:45:14.924Z,35.45
2019-01-22T01:47:44.344Z,35.13
2019-01-22T01:50:15.135Z,33.55
2019-01-22T01:52:44.082Z,37.88
2019-01-22T01:55:14.571Z,36.83
2019-01-22T01:57:43.578Z,35.85
2019-01-22T02:00:20.644Z,36.50
2019-01-22T02:02:49.743Z,38.48
2019-01-22T02:05:18.855Z,41.05
2019-01-22T02:07:47.768Z,39.67
2019-01-22T02:10:21.998Z,40.33
2019-01-22T02:13:03.887Z,36.05
2019-01-22T02:15:39.781Z,36.60
2019-01-22T02:18:41.966Z,39.95
2019-01-22T02:21:27.769Z,36.17
2019-01-22T02:24:18.896Z,34.45
2019-01-22T02:27:04.551Z,39.73
2019-01-22T02:29:57.559Z,37.55
2019-01-22T02:32:53.686Z,37.53
2019-01-22T02:35:49.706Z,35.52
2019-01-22T02:38:48.872Z,32.80
2019-01-22T02:42:04.546Z,30.75
2019-01-22T02:45:16.368Z,28.98
2019-01-22T02:48:08.270Z,27.80
2019-01-22T02:51:19.944Z,32.60
2019-01-22T02:54:33.010Z,32.05
2019-01-22T02:57:26.301Z,33.25
2019-01-22T03:00:48.537Z,31.23
2019-01-22T03:03:37.457Z,32.00
2019-01-22T03:06:39.439Z,34.73
2019-01-22T03:09:48.374Z,34.23
2019-01-22T03:12:58.870Z,35.13
2019-01-22T03:15:58.553Z,39.45
2019-01-22T03:18:47.733Z,36.30
2019-01-22T03:21:35.752Z,35.50
2019-01-22T03:24:53.507Z,38.00
2019-01-22T03:27:48.705Z,37.73
2019-01-22T03:31:12.078Z,38.23
2019-01-22T03:34:22.748Z,38.63
2019-01-22T03:37:08.687Z,36.93
2019-01-22T03:39:42.957Z,33.50
2019-01-22T03:42:20.928Z,33.88
2019-01-22T03:45:40.306Z,35.23
2019-01-22T03:48:37.488Z,33.92
2019-01-22T03:51:27.483Z,34.30
2019-01-22T03:54:24.402Z,34.27
2019-01-22T03:57:30.346Z,35.30
2019-01-22T03:59:59.432Z,36.35
2019-01-22T04:02:31.860Z,34.92
2019-01-22T04:05:00.848Z,34.78
2019-01-22T04:07:30.263Z,35.17
2019-01-22T04:10:08.804Z,35.50
2019-01-22T04:12:37.903Z,32.75
2019-01-22T04:15:10.566Z,35.75
2019-01-22T04:17:40.049Z,32.05
2019-01-22T04:20:10.914Z,34.90
2019-01-22T04:22:49.949Z,31.52
2019-01-22T04:25:44.314Z,34.35
2019-01-22T04:28:36.176Z,31.57
2019-01-22T04:31:10.049Z,34.03
2019-01-22T04:34:09.722Z,32.73
2019-01-22T04:37:00.217Z,33.53
2019-01-22T04:39:43.224Z,31.57
2019-01-22T04:42:56.589Z,32.98
2019-01-22T04:46:14.280Z,31.77
2019-01-22T04:49:22.616Z,31.62
2019-01-22T04:52:31.633Z,29.63
2019-01-22T04:55:40.791Z,31.90
2019-01-22T04:59:00.015Z,32.10
2019-01-22T05:02:08.726Z,29.82
2019-01-22T05:04:49.719Z,32.25
2019-01-22T05:07:57.552Z,33.38
2019-01-22T05:11:15.543Z,32.20
2019-01-22T05:14:07.718Z,32.65
2019-01-22T05:17:20.291Z,34.23
2019-01-22T05:20:14.183Z,35.05
2019-01-22T05:23:15.322Z,32.93
2019-01-22T05:26:25.824Z,31.90
2019-01-22T05:29:05.495Z,31.12
2019-01-22T05:31:43.513Z,32.53
2019-01-22T05:34:32.247Z,31.75
2019-01-22T05:37:38.239Z,32.70
2019-01-22T05:40:38.708Z,32.53
2019-01-22T05:43:49.627Z,33.10
2019-01-22T05:47:09.051Z,35.78
2019-01-22T05:50:30.848Z,35.13
2019-01-22T05:53:33.981Z,32.35
2019-01-22T05:56:08.132Z,31.35
2019-01-22T05:59:25.229Z,31.75
2019-01-22T06:02:01.290Z,32.85
2019-01-22T06:05:09.147Z,32.03
2019-01-22T06:07:54.496Z,32.33
2019-01-22T06:11:11.995Z,30.20
2019-01-22T06:14:04.063Z,31.00
2019-01-22T06:17:06.945Z,30.23
2019-01-22T06:20:01.283Z,31.62
2019-01-22T06:22:53.324Z,31.10
2019-01-22T06:25:49.580Z,34.10
2019-01-22T06:28:58.657Z,32.38
2019-01-22T06:32:04.506Z,32.45
2019-01-22T06:34:58.630Z,33.83
2019-01-22T06:37:52.432Z,34.85
2019-01-22T06:40:39.584Z,34.95
2019-01-22T06:43:46.223Z,32.75
2019-01-22T06:46:33.315Z,36.55
2019-01-22T06:49:24.593Z,34.58
2019-01-22T06:52:08.718Z,35.63
2019-01-22T06:54:58.479Z,37.58
2019-01-22T06:58:03.422Z,34.85
2019-01-22T07:00:54.815Z,34.58
2019-01-22T07:03:58.199Z,31.95
2019-01-22T07:06:41.180Z,34.20
2019-01-22T07:09:22.399Z,34.48
2019-01-22T07:12:24.618Z,36.85
2019-01-22T07:15:18.648Z,33.80
2019-01-22T07:18:28.733Z,37.03
2019-01-22T07:21:28.759Z,32.80
2019-01-22T07:24:07.137Z,36.08
2019-01-22T07:27:16.093Z,35.17
2019-01-22T07:30:13.534Z,34.43
2019-01-22T07:33:34.137Z,36.70
2019-01-22T07:36:13.067Z,37.93
2019-01-22T07:39:07.967Z,34.45
2019-01-22T07:41:44.938Z,33.23
2019-01-22T07:45:04.163Z,37.33
2019-01-22T07:47:48.704Z,36.83
2019-01-22T07:50:27.112Z,36.23
2019-01-22T07:53:35.556Z,34.45
2019-01-22T07:56:42.383Z,33.58
2019-01-22T07:59:43.031Z,33.48
2019-01-22T08:03:04.652Z,35.13
2019-01-22T08:05:56.120Z,32.58
2019-01-22T08:08:46.723Z,33.25
2019-01-22T08:11:42.088Z,31.95
2019-01-22T08:14:55.230Z,35.33
2019-01-22T08:18:08.334Z,34.43
2019-01-22T08:21:20.296Z,32.88
2019-01-22T08:24:17.007Z,33.35
2019-01-22T08:27:00.806Z,32.53
2019-01-22T08:30:04.559Z,35.70
2019-01-22T08:33:23.529Z,35.03
2019-01-22T08:36:29.452Z,34.50
2019-01-22T08:39:23.998Z,38.55
2019-01-22T08:42:03.316Z,35.50
2019-01-22T08:45:15.058Z,33.98
2019-01-22T08:48:20.979Z,33.05
2019-01-22T08:51:40.148Z,33.28
2019-01-22T08:54:45.935Z,31.62
2019-01-22T08:57:44.215Z,31.77
2019-01-22T09:00:21.416Z,31.30
2019-01-22T09:03:19.569Z,30.40
2019-01-22T09:06:19.771Z,30.02
2019-01-22T09:09:17.431Z,30.82
2019-01-22T09:12:16.279Z,29.70
2019-01-22T09:15:00.230Z,29.30
2019-01-22T09:17:59.721Z,29.00
2019-01-22T09:20:52.518Z,28.87
2019-01-22T09:24:11.686Z,30.57
2019-01-22T09:27:21.072Z,26.42
2019-01-22T09:30:02.907Z,30.35
2019-01-22T09:32:52.441Z,28.75
2019-01-22T09:36:13.719Z,27.62
2019-01-22T09:38:42.781Z,26.97
2019-01-22T09:41:11.820Z,26.60
2019-01-22T09:43:40.861Z,29.55
2019-01-22T09:46:09.797Z,28.10
2019-01-22T09:48:38.764Z,28.12
2019-01-22T09:51:07.877Z,26.45
2019-01-22T09:53:36.902Z,27.60
2019-01-22T09:56:05.933Z,27.58
2019-01-22T09:58:35.026Z,27.90
2019-01-22T10:01:04.135Z,25.60
2019-01-22T10:03:33.411Z,26.87
2019-01-22T10:06:02.247Z,26.75
2019-01-22T10:08:31.171Z,24.45
2019-01-22T10:11:01.810Z,25.92
2019-01-22T10:13:31.010Z,24.52
2019-01-22T10:16:02.362Z,23.05
2019-01-22T10:18:31.373Z,23.50
2019-01-22T10:21:00.444Z,23.22
2019-01-22T10:23:29.635Z,22.62
2019-01-22T10:25:58.719Z,23.67
2019-01-22T10:28:27.559Z,25.32
2019-01-22T10:30:56.426Z,22.55
2019-01-22T10:33:25.596Z,26.87
2019-01-22T10:35:54.538Z,21.82
2019-01-22T10:38:23.489Z,23.67
2019-01-22T10:40:52.484Z,21.77
2019-01-22T10:43:21.433Z,20.90
2019-01-22T10:45:52.798Z,22.27
2019-01-22T10:48:22.014Z,21.85
2019-01-22T10:50:51.216Z,21.40
2019-01-22T10:53:20.464Z,20.65
2019-01-22T10:55:51.257Z,21.15
2019-01-22T10:58:20.392Z,20.75
2019-01-22T11:01:13.938Z,18.85
2019-01-22T11:03:45.880Z,20.25
2019-01-22T11:06:14.930Z,19.62
2019-01-22T11:08:44.138Z,20.82
2019-01-22T11:11:32.414Z,22.85
2019-01-22T11:14:09.958Z,20.90
2019-01-22T11:17:19.930Z,20.55
2019-01-22T11:20:32.002Z,21.25
2019-01-22T11:23:04.198Z,22.73
2019-01-22T11:25:35.131Z,22.15
2019-01-22T11:29:07.061Z,22.65
2019-01-22T11:31:45.414Z,21.30
2019-01-22T11:34:16.154Z,21.23
2019-01-22T11:36:45.306Z,21.87
2019-01-22T11:39:14.523Z,22.13
2019-01-22T11:41:47.909Z,23.22
2019-01-22T11:44:17.575Z,20.50
2019-01-22T11:46:47.594Z,20.82
2019-01-22T11:49:23.219Z,21.65
2019-01-22T11:51:47.975Z,22.55
2019-01-22T11:54:16.997Z,22.58
2019-01-22T11:59:38.205Z,22.45
2019-01-22T12:02:07.852Z,22.17
2019-01-22T12:04:37.040Z,20.80
2019-01-22T12:07:09.073Z,21.23
2019-01-22T12:09:37.968Z,20.00
2019-01-22T12:12:07.450Z,21.40
2019-01-22T12:14:36.530Z,23.90
2019-01-22T12:17:05.767Z,21.37
2019-01-22T12:19:34.743Z,21.68
2019-01-22T12:22:03.737Z,22.00
2019-01-22T12:24:32.773Z,19.90
2019-01-22T12:27:24.840Z,19.25
2019-01-22T12:29:53.864Z,21.07
2019-01-22T12:32:49.135Z,20.40
2019-01-22T12:35:40.702Z,19.27
2019-01-22T12:38:16.960Z,16.93
2019-01-22T12:40:53.184Z,17.57
2019-01-22T12:43:40.425Z,16.95
2019-01-22T12:46:56.668Z,17.10
2019-01-22T12:50:00.749Z,16.30
2019-01-22T12:59:32.365Z,16.40
2019-01-22T13:02:37.066Z,16.87
2019-01-22T13:05:51.808Z,16.50
2019-01-22T13:08:50.055Z,17.17
2019-01-22T13:11:33.979Z,16.10
2019-01-22T13:15:13.602Z,16.02
2019-01-22T13:17:50.672Z,14.95
2019-01-22T13:20:49.185Z,16.73
2019-01-22T13:23:21.137Z,15.38
2019-01-22T13:25:54.750Z,15.95
2019-01-22T13:28:54.131Z,15.40
2019-01-22T13:32:00.934Z,16.00
2019-01-22T13:35:30.961Z,16.15
2019-01-22T13:38:51.961Z,16.35
2019-01-22T13:41:50.787Z,16.23
2019-01-22T13:45:10.028Z,15.23
2019-01-22T13:47:51.453Z,16.52
2019-01-22T13:50:56.734Z,15.98
2019-01-22T13:53:27.913Z,16.10
2019-01-22T13:59:07.066Z,16.30
2019-01-22T14:02:08.079Z,16.30
2019-01-22T14:05:01.991Z,16.48
2019-01-22T14:07:30.694Z,17.70
2019-01-22T14:10:06.284Z,15.50
2019-01-22T14:12:39.024Z,16.60
2019-01-22T14:15:29.287Z,18.40
2019-01-22T14:17:55.890Z,15.85
2019-01-22T14:20:25.591Z,17.60
2019-01-22T14:22:55.329Z,17.17
2019-01-22T14:25:24.683Z,17.23
2019-01-22T14:27:54.023Z,17.87
2019-01-22T14:30:28.530Z,18.42
2019-01-22T14:33:06.965Z,17.12
2019-01-22T14:35:36.494Z,17.05
2019-01-22T14:38:06.306Z,16.62
2019-01-22T14:44:15.665Z,16.77
2019-01-22T14:47:06.912Z,17.37
2019-01-22T14:49:49.730Z,15.53
2019-01-22T14:52:14.425Z,17.90
2019-01-22T14:54:49.733Z,17.37
2019-01-22T14:58:08.181Z,17.27
2019-01-22T15:01:15.849Z,16.05
2019-01-22T15:03:51.928Z,17.90
2019-01-22T15:06:24.026Z,19.25
2019-01-22T15:08:54.833Z,18.30
2019-01-22T15:11:23.733Z,18.70
2019-01-22T15:13:54.521Z,17.92
2019-01-22T15:16:23.996Z,18.77
2019-01-22T15:18:53.393Z,17.65
2019-01-22T15:21:28.276Z,18.70
2019-01-22T15:24:13.485Z,18.87
2019-01-22T15:27:27.158Z,17.87
2019-01-22T15:29:56.662Z,18.10
2019-01-22T15:33:14.936Z,18.05
2019-01-22T15:35:43.214Z,18.75
2019-01-22T15:38:32.151Z,17.35
2019-01-22T15:41:22.530Z,20.15
2019-01-22T15:44:03.202Z,17.42
2019-01-22T15:46:32.897Z,20.10
2019-01-22T15:49:02.442Z,19.05
2019-01-22T15:51:33.463Z,18.37
2019-01-22T15:54:05.869Z,19.77
2019-01-22T15:56:35.128Z,17.52
2019-01-22T15:59:04.485Z,19.95
2019-01-22T16:02:01.224Z,20.08
2019-01-22T16:04:18.868Z,18.25
2019-01-22T16:10:30.843Z,18.48
2019-01-22T16:13:20.448Z,16.65
2019-01-22T16:15:47.737Z,17.07
2019-01-22T16:18:19.453Z,18.45
2019-01-22T16:20:53.538Z,18.23
2019-01-22T16:23:23.054Z,19.27
2019-01-22T16:26:30.033Z,19.45
2019-01-22T16:29:01.277Z,17.80
2019-01-22T16:31:30.462Z,18.07
2019-01-22T16:34:09.725Z,17.50
2019-01-22T16:36:39.192Z,17.17
2019-01-22T16:39:50.008Z,15.83
2019-01-22T16:42:23.391Z,15.30
2019-01-22T16:44:56.313Z,15.95
2019-01-22T16:47:34.099Z,16.02
2019-01-22T16:50:03.207Z,15.98
2019-01-22T16:52:54.543Z,15.43
2019-01-22T17:06:17.721Z,13.85
2019-01-22T17:10:06.675Z,12.40
2019-01-22T17:17:10.456Z,13.03
2019-01-22T17:31:20.437Z,14.00
2019-01-22T17:33:52.891Z,13.80
2019-01-22T17:36:41.479Z,13.72
2019-01-22T17:39:29.900Z,15.45
2019-01-22T17:41:59.740Z,14.70
2019-01-22T17:44:35.192Z,14.63
2019-01-22T17:47:29.572Z,14.98
2019-01-22T17:50:04.356Z,14.10
2019-01-22T17:52:43.485Z,13.60
2019-01-22T17:55:13.640Z,14.25
2019-01-22T17:57:43.253Z,14.58
2019-01-22T18:00:17.375Z,15.38
2019-01-22T18:02:46.726Z,15.13
2019-01-22T18:08:18.823Z,12.93
2019-01-22T18:10:47.928Z,15.10
2019-01-22T18:13:17.018Z,16.62
2019-01-22T18:15:46.068Z,15.70
2019-01-22T18:18:15.062Z,18.15
2019-01-22T18:20:44.886Z,14.95
2019-01-22T18:23:49.468Z,18.48
2019-01-22T18:27:00.945Z,16.27
2019-01-22T18:30:26.017Z,16.30
2019-01-22T18:33:13.251Z,15.38
2019-01-22T18:35:44.030Z,13.78
2019-01-22T18:38:14.864Z,15.58
2019-01-22T18:40:43.830Z,15.13
2019-01-22T18:43:12.740Z,16.75
2019-01-22T18:45:41.652Z,16.87
2019-01-22T18:48:10.747Z,16.05
2019-01-22T18:50:40.026Z,16.35
2019-01-22T18:53:09.024Z,15.30
2019-01-22T18:55:38.090Z,15.58
2019-01-22T18:58:07.179Z,16.05
2019-01-22T19:00:36.412Z,15.78
2019-01-22T19:03:05.874Z,15.08
2019-01-22T19:05:34.931Z,17.62
2019-01-22T19:08:03.904Z,16.82
2019-01-22T19:10:32.907Z,17.40
2019-01-22T19:13:02.034Z,18.87
2019-01-22T19:15:31.010Z,18.42
2019-01-22T19:17:59.888Z,15.35
2019-01-22T19:20:28.865Z,15.90
2019-01-22T19:22:58.166Z,15.75
2019-01-22T19:25:27.959Z,17.00
2019-01-22T19:27:57.008Z,17.60
2019-01-22T19:30:28.015Z,18.45
2019-01-22T19:32:57.037Z,17.87
2019-01-22T19:35:27.543Z,17.95
2019-01-22T19:37:56.626Z,18.27
2019-01-22T19:40:25.834Z,19.45
2019-01-22T19:42:54.814Z,18.57
2019-01-22T19:45:35.464Z,19.45
2019-01-22T19:48:04.826Z,19.20
2019-01-22T19:50:33.860Z,20.02
2019-01-22T19:53:02.935Z,19.25
2019-01-22T19:55:31.981Z,18.80
2019-01-22T19:58:01.027Z,19.87
2019-01-22T20:00:35.273Z,19.00
2019-01-22T20:03:05.708Z,20.92
2019-01-22T20:05:35.073Z,19.07
2019-01-22T20:08:04.446Z,20.05
2019-01-22T20:10:33.577Z,19.90
2019-01-22T20:13:02.700Z,19.82
2019-01-22T20:15:31.771Z,20.35
2019-01-22T20:18:00.862Z,19.90
2019-01-22T20:20:29.851Z,18.92
2019-01-22T20:22:58.895Z,20.25
2019-01-22T20:25:27.791Z,21.10
2019-01-22T20:27:56.718Z,22.13
2019-01-22T20:30:30.739Z,21.62
2019-01-22T20:32:59.693Z,23.20
2019-01-22T20:35:28.772Z,21.87
2019-01-22T20:37:58.048Z,19.70
2019-01-22T20:40:27.270Z,20.30
2019-01-22T20:42:56.452Z,20.00
2019-01-22T20:45:26.820Z,22.65
2019-01-22T20:47:56.122Z,20.90
2019-01-22T20:50:25.161Z,20.20
2019-01-22T20:52:54.281Z,22.07
2019-01-22T20:55:23.551Z,21.77
2019-01-22T20:57:54.984Z,23.95
2019-01-22T21:00:23.971Z,23.47
2019-01-22T21:02:53.240Z,19.73
2019-01-22T21:05:24.114Z,22.50
2019-01-22T21:07:53.131Z,25.15
2019-01-22T21:10:24.521Z,23.15
2019-01-22T21:12:53.555Z,25.00
2019-01-22T21:15:22.550Z,24.25
2019-01-22T21:17:51.794Z,24.50
2019-01-22T21:20:20.901Z,26.23
2019-01-22T21:22:49.951Z,23.70
2019-01-22T21:25:19.231Z,22.35
2019-01-22T21:27:48.233Z,24.05
2019-01-22T21:30:34.048Z,24.47
2019-01-22T21:33:03.638Z,22.77
2019-01-22T21:35:32.583Z,24.15
2019-01-22T21:38:01.606Z,23.52
2019-01-22T21:40:30.563Z,24.45
2019-01-22T21:42:59.752Z,25.90
2019-01-22T21:45:28.860Z,24.47
2019-01-22T21:47:57.876Z,24.20
2019-01-22T21:50:26.890Z,25.68
2019-01-22T21:52:55.860Z,26.68
2019-01-22T21:55:24.960Z,25.27
2019-01-22T21:57:54.061Z,24.67
2019-01-22T22:00:24.306Z,26.12
2019-01-22T22:02:53.567Z,25.75
2019-01-22T22:05:25.323Z,25.37
2019-01-22T22:07:54.736Z,26.07
2019-01-22T22:10:24.351Z,26.42
2019-01-22T22:12:53.400Z,24.70
2019-01-22T22:15:23.375Z,25.08
2019-01-22T22:17:52.381Z,25.68
2019-01-22T22:20:21.448Z,26.45
2019-01-22T22:22:50.459Z,25.40
2019-01-22T22:25:20.889Z,26.33
2019-01-22T22:27:49.811Z,25.30
2019-01-22T22:30:37.555Z,25.40
2019-01-22T22:33:06.685Z,24.27
2019-01-22T22:35:35.766Z,26.82
2019-01-22T22:38:05.096Z,26.33
2019-01-22T22:40:34.132Z,27.65
2019-01-22T22:43:03.066Z,25.80
2019-01-22T22:45:32.123Z,26.80
2019-01-22T22:48:01.167Z,28.45
2019-01-22T22:50:32.006Z,25.35
2019-01-22T22:53:00.993Z,25.30
2019-01-22T22:55:30.037Z,29.48
2019-01-22T22:57:59.008Z,24.95
2019-01-22T23:00:56.056Z,27.67
2019-01-22T23:03:25.052Z,27.67
2019-01-22T23:05:54.295Z,28.30
2019-01-22T23:08:23.145Z,27.50
2019-01-22T23:10:52.103Z,27.87
2019-01-22T23:13:21.100Z,28.50
2019-01-22T23:15:50.112Z,25.90
2019-01-22T23:18:19.108Z,28.62
2019-01-22T23:20:48.230Z,28.40
2019-01-22T23:23:17.107Z,27.58
2019-01-22T23:25:46.091Z,28.65
2019-01-22T23:28:15.207Z,28.70
2019-01-22T23:30:44.167Z,28.52
2019-01-22T23:33:13.130Z,29.40
2019-01-22T23:35:42.156Z,25.70
2019-01-22T23:38:11.208Z,26.95
2019-01-22T23:40:40.179Z,27.60
2019-01-22T23:43:09.258Z,26.52
2019-01-22T23:45:38.300Z,29.25
2019-01-22T23:48:07.369Z,28.02
2019-01-22T23:50:36.272Z,26.70
2019-01-22T23:53:07.830Z,26.73
2019-01-22T23:55:36.749Z,27.17
2019-01-22T23:58:05.891Z,27.45
